Time;durP1;ratioP1;P1;durP2;ratioP2;P2;SDS_P1;SDS_P2;PMS_P1;PMS_P2;Temp;Humidity;BMP_temperature;BMP_pressure;BME280_temperature;BME280_humidity;BME280_pressure;Samples;Min_cycle;Max_cycle;Signal;HPM_P1;HPM_P2
2021/12/10 00:01:27;;;;;;;32.53;11.25;;;;;;;1.88;100.00;99662.38;5033226;28;20056;-73
2021/12/10 00:03:58;;;;;;;27.75;10.73;;;;;;;1.86;100.00;99666.78;5033242;28;20525;-73
2021/12/10 00:06:33;;;;;;;23.60;10.57;;;;;;;1.91;100.00;99659.69;5036961;28;20708;-70
2021/12/10 00:09:09;;;;;;;23.42;10.23;;;;;;;1.90;100.00;99657.94;5034337;28;20053;-71
2021/12/10 00:11:41;;;;;;;21.77;11.13;;;;;;;1.88;100.00;99658.88;5036981;28;20067;-70
2021/12/10 00:14:09;;;;;;;28.02;11.68;;;;;;;1.88;100.00;99654.47;5034132;28;20763;-70
2021/12/10 00:16:38;;;;;;;19.88;10.80;;;;;;;1.81;100.00;99635.28;5035690;28;20128;-70
2021/12/10 00:19:23;;;;;;;24.98;13.02;;;;;;;1.81;100.00;99639.69;5033238;28;20049;-70
2021/12/10 00:21:53;;;;;;;26.70;11.60;;;;;;;1.80;100.00;99645.84;5037129;28;20382;-70
2021/12/10 00:24:25;;;;;;;25.35;12.80;;;;;;;1.78;100.00;99637.97;5034358;28;20425;-70
2021/12/10 00:26:53;;;;;;;32.50;12.43;;;;;;;1.77;100.00;99635.34;5036232;28;20617;-70
2021/12/10 00:29:21;;;;;;;23.85;11.43;;;;;;;1.78;100.00;99618.69;5034013;28;20051;-70
2021/12/10 00:31:53;;;;;;;23.23;11.45;;;;;;;1.77;100.00;99617.84;5033728;28;20057;-70
2021/12/10 00:34:27;;;;;;;26.80;12.77;;;;;;;1.78;100.00;99610.78;5035725;28;20083;-70
2021/12/10 00:37:00;;;;;;;25.45;12.60;;;;;;;1.77;100.00;99603.78;5036972;28;20906;-70
2021/12/10 00:39:32;;;;;;;25.08;12.70;;;;;;;1.75;100.00;99595.91;5032951;28;20049;-70
2021/12/10 00:42:03;;;;;;;27.13;12.82;;;;;;;1.79;100.00;99588.88;5037566;28;20059;-71
2021/12/10 00:44:32;;;;;;;24.08;12.27;;;;;;;1.80;100.00;99577.44;5035269;28;20057;-70
2021/12/10 00:47:00;;;;;;;28.27;13.38;;;;;;;1.78;100.00;99572.19;5034279;28;20743;-70
2021/12/10 00:49:28;;;;;;;29.83;13.70;;;;;;;1.77;100.00;99565.22;5033655;28;20053;-70
2021/12/10 00:51:57;;;;;;;31.48;12.60;;;;;;;1.83;100.00;99556.34;5033306;28;20059;-70
2021/12/10 00:54:25;;;;;;;23.70;11.50;;;;;;;1.75;100.00;99555.59;5032685;28;20131;-70
2021/12/10 00:56:53;;;;;;;22.65;12.57;;;;;;;1.75;100.00;99556.47;5034724;28;20049;-70
2021/12/10 00:59:21;;;;;;;25.27;13.43;;;;;;;1.77;100.00;99545.91;5029674;28;20249;-71
2021/12/10 01:01:51;;;;;;;24.33;10.30;;;;;;;1.79;100.00;99536.28;5032885;28;20056;-73
2021/12/10 01:04:27;;;;;;;21.70;11.98;;;;;;;1.75;100.00;99524.03;5030520;28;20260;-73
2021/12/10 01:06:59;;;;;;;25.25;10.30;;;;;;;1.81;100.00;99529.22;5034655;28;20053;-73
2021/12/10 01:09:32;;;;;;;22.05;10.52;;;;;;;1.78;100.00;99524.00;5033360;28;20041;-73
2021/12/10 01:12:04;;;;;;;20.13;10.88;;;;;;;1.79;100.00;99531.00;5036022;28;20052;-73
2021/12/10 01:14:52;;;;;;;30.48;10.13;;;;;;;1.83;100.00;99522.16;5034652;28;20049;-73
2021/12/10 01:25:56;;;;;;;24.58;9.85;;;;;;;1.75;100.00;99492.47;5032007;28;20044;-73
2021/12/10 01:28:24;;;;;;;23.02;10.00;;;;;;;1.73;100.00;99484.63;5033109;28;20085;-73
2021/12/10 01:30:54;;;;;;;22.13;10.43;;;;;;;1.74;100.00;99480.22;5029707;28;20057;-72
2021/12/10 01:33:23;;;;;;;20.13;9.55;;;;;;;1.74;100.00;99486.38;5032625;28;20049;-73
2021/12/10 01:35:56;;;;;;;14.05;7.47;;;;;;;1.77;100.00;99485.44;5034440;28;20139;-73
2021/12/10 01:38:26;;;;;;;23.35;11.20;;;;;;;1.80;100.00;99480.97;5031054;28;20559;-73
2021/12/10 01:40:58;;;;;;;22.95;11.05;;;;;;;1.79;100.00;99476.63;5033425;28;20136;-73
2021/12/10 01:43:31;;;;;;;19.10;9.70;;;;;;;1.83;100.00;99473.03;5033107;28;20049;-73
2021/12/10 01:46:07;;;;;;;20.77;9.68;;;;;;;1.81;100.00;99466.09;5032802;28;20115;-73
2021/12/10 01:48:42;;;;;;;24.58;10.23;;;;;;;1.78;100.00;99458.25;5032474;28;20059;-73
2021/12/10 01:51:14;;;;;;;19.40;10.43;;;;;;;1.81;100.00;99455.56;5035038;28;20100;-70
2021/12/10 01:53:46;;;;;;;21.00;10.45;;;;;;;1.77;100.00;99457.38;5032158;28;20057;-69
2021/12/10 01:56:18;;;;;;;21.38;11.15;;;;;;;1.72;100.00;99455.72;5032666;28;20130;-71
2021/12/10 01:58:48;;;;;;;16.77;8.65;;;;;;;1.69;100.00;99443.50;5029224;28;20072;-70
2021/12/10 02:01:21;;;;;;;19.85;8.73;;;;;;;1.77;100.00;99432.81;5031930;28;20049;-69
2021/12/10 02:03:50;;;;;;;16.52;10.07;;;;;;;1.83;100.00;99435.34;5034287;28;20075;-69
2021/12/10 02:06:18;;;;;;;17.75;9.65;;;;;;;1.78;100.00;99419.66;5035776;28;20115;-70
2021/12/10 02:08:48;;;;;;;22.13;9.93;;;;;;;1.74;100.00;99417.97;5032952;28;20095;-70
2021/12/10 02:11:17;;;;;;;17.20;8.35;;;;;;;1.85;100.00;99407.25;5032572;28;20049;-69
2021/12/10 02:13:46;;;;;;;16.95;8.98;;;;;;;1.85;100.00;99400.22;5030486;28;20056;-70
2021/12/10 02:16:15;;;;;;;13.95;6.93;;;;;;;1.93;100.00;99391.34;5031985;28;20045;-69
2021/12/10 02:18:43;;;;;;;21.55;10.20;;;;;;;1.86;100.00;99383.53;5034293;28;20068;-72
2021/12/10 02:21:20;;;;;;;20.58;9.07;;;;;;;1.91;100.00;99377.31;5033516;28;20363;-70
2021/12/10 02:23:55;;;;;;;20.88;8.75;;;;;;;1.94;100.00;99374.63;5029436;28;20160;-70
2021/12/10 02:26:25;;;;;;;11.75;6.32;;;;;;;2.00;100.00;99371.88;5031792;28;20053;-69
2021/12/10 02:28:53;;;;;;;15.18;6.78;;;;;;;2.00;100.00;99379.78;5035021;28;20098;-70
2021/12/10 02:31:22;;;;;;;16.67;7.30;;;;;;;2.00;100.00;99375.38;5035143;28;20788;-71
2021/12/10 02:33:50;;;;;;;10.60;5.40;;;;;;;2.02;100.00;99364.81;5037200;28;20049;-71
2021/12/10 02:36:19;;;;;;;25.45;6.57;;;;;;;2.08;100.00;99362.06;5036645;28;20133;-70
2021/12/10 02:38:51;;;;;;;14.55;5.93;;;;;;;2.05;100.00;99352.47;5034462;28;20069;-73
2021/12/10 02:41:21;;;;;;;11.52;6.43;;;;;;;2.11;100.00;99346.22;5036435;28;20056;-73
2021/12/10 02:43:49;;;;;;;15.75;5.63;;;;;;;2.11;100.00;99340.97;5036950;28;20059;-74
2021/12/10 02:46:18;;;;;;;16.10;5.43;;;;;;;2.21;100.00;99344.25;5037260;28;20126;-73
2021/12/10 02:48:46;;;;;;;16.40;7.13;;;;;;;2.24;100.00;99331.88;5037483;28;20568;-74
2021/12/10 02:51:14;;;;;;;11.43;6.00;;;;;;;2.23;100.00;99327.53;5037229;28;20445;-71
2021/12/10 02:53:45;;;;;;;12.13;5.40;;;;;;;2.32;100.00;99328.22;5035793;28;20045;-71
2021/12/10 02:56:18;;;;;;;10.18;5.13;;;;;;;2.35;100.00;99307.06;5034819;28;20123;-71
2021/12/10 02:58:49;;;;;;;18.70;6.10;;;;;;;2.36;100.00;99311.44;5034957;28;20053;-71
2021/12/10 03:01:27;;;;;;;12.55;5.20;;;;;;;2.35;100.00;99309.72;5036578;28;20685;-71
2021/12/10 03:03:56;;;;;;;12.60;5.35;;;;;;;2.38;100.00;99305.25;5033273;28;20044;-72
2021/12/10 03:06:24;;;;;;;9.60;4.95;;;;;;;2.35;100.00;99296.53;5038309;28;20076;-69
2021/12/10 03:08:54;;;;;;;9.98;4.90;;;;;;;2.41;100.00;99293.78;5034396;28;20064;-71
2021/12/10 03:11:26;;;;;;;11.68;5.38;;;;;;;2.40;100.00;99290.28;5035895;28;20056;-71
2021/12/10 03:13:54;;;;;;;11.18;5.35;;;;;;;2.40;100.00;99298.19;5031694;28;20126;-68
2021/12/10 03:16:24;;;;;;;16.70;5.20;;;;;;;2.39;100.00;99287.69;5036334;28;20589;-71
2021/12/10 03:18:52;;;;;;;10.05;5.40;;;;;;;2.38;100.00;99281.56;5034845;28;20048;-70
2021/12/10 03:21:20;;;;;;;14.25;5.15;;;;;;;2.39;100.00;99278.00;5036718;28;20115;-71
2021/12/10 03:23:49;;;;;;;11.88;6.35;;;;;;;2.41;100.00;99277.97;5032682;28;20056;-72
2021/12/10 03:26:21;;;;;;;10.70;4.55;;;;;;;2.41;100.00;99265.69;5037911;28;20055;-72
2021/12/10 03:28:52;;;;;;;13.35;5.40;;;;;;;2.43;100.00;99263.91;5033530;28;20159;-72
2021/12/10 03:31:22;;;;;;;9.80;5.10;;;;;;;2.44;100.00;99270.03;5035827;28;20059;-72
2021/12/10 03:33:52;;;;;;;11.65;5.15;;;;;;;2.41;100.00;99262.19;5037764;28;20047;-72
2021/12/10 03:36:21;;;;;;;10.30;5.18;;;;;;;2.42;100.00;99256.03;5036664;28;20144;-72
2021/12/10 03:38:50;;;;;;;18.05;6.28;;;;;;;2.43;100.00;99256.00;5035341;28;20675;-72
2021/12/10 03:41:19;;;;;;;13.50;5.80;;;;;;;2.47;100.00;99253.25;5035031;28;20045;-72
2021/12/10 03:43:50;;;;;;;11.25;4.75;;;;;;;2.41;100.00;99241.13;5038783;28;20049;-74
2021/12/10 03:46:19;;;;;;;12.02;5.22;;;;;;;2.40;100.00;99245.53;5035864;28;20057;-72
2021/12/10 03:48:47;;;;;;;17.00;4.55;;;;;;;2.36;100.00;99237.75;5038245;28;20052;-72
2021/12/10 03:51:20;;;;;;;11.82;4.72;;;;;;;2.36;100.00;99225.44;5035876;28;20056;-72
2021/12/10 03:53:49;;;;;;;12.83;5.20;;;;;;;2.36;100.00;99211.41;5037409;28;20055;-72
2021/12/10 03:56:21;;;;;;;11.45;5.38;;;;;;;2.34;100.00;99221.97;5033092;28;20067;-73
2021/12/10 03:58:50;;;;;;;10.38;4.15;;;;;;;2.35;100.00;99217.56;5038722;28;20779;-71
2021/12/10 04:01:21;;;;;;;13.20;5.07;;;;;;;2.37;100.00;99218.41;5034520;28;20222;-72
2021/12/10 04:03:53;;;;;;;14.07;6.22;;;;;;;2.35;100.00;99201.78;5034752;28;20049;-73
2021/12/10 04:06:21;;;;;;;9.48;4.50;;;;;;;2.33;100.00;99190.44;5035003;28;20056;-72
2021/12/10 04:08:53;;;;;;;8.68;4.35;;;;;;;2.40;100.00;99192.88;5035827;28;20411;-69
2021/12/10 04:11:22;;;;;;;11.18;4.47;;;;;;;2.44;100.00;99193.66;5035197;28;20072;-69
2021/12/10 04:13:53;;;;;;;10.23;4.32;;;;;;;2.41;100.00;99188.47;5034870;28;20045;-69
2021/12/10 04:16:23;;;;;;;12.23;4.22;;;;;;;2.36;100.00;99182.47;5036579;28;20524;-69
2021/12/10 04:18:55;;;;;;;10.35;4.25;;;;;;;2.39;100.00;99187.66;5037192;28;20072;-69
2021/12/10 04:21:23;;;;;;;10.15;4.03;;;;;;;2.34;100.00;99173.75;5035592;28;20049;-69
2021/12/10 04:23:52;;;;;;;9.75;4.10;;;;;;;2.40;100.00;99171.81;5036309;28;20053;-69
2021/12/10 04:26:24;;;;;;;9.45;4.68;;;;;;;2.37;100.00;99173.66;5033129;28;20052;-69
2021/12/10 04:28:53;;;;;;;9.45;4.55;;;;;;;2.43;100.00;99163.84;5034675;28;20083;-69
2021/12/10 04:31:21;;;;;;;9.50;4.82;;;;;;;2.50;100.00;99159.25;5037083;28;20049;-70
2021/12/10 04:33:49;;;;;;;11.23;4.03;;;;;;;2.44;100.00;99154.16;5035215;28;20094;-69
2021/12/10 04:36:17;;;;;;;11.13;4.05;;;;;;;2.39;100.00;99148.16;5035026;28;20041;-69
2021/12/10 04:38:46;;;;;;;11.43;3.75;;;;;;;2.39;100.00;99141.13;5036105;28;20138;-69
2021/12/10 04:41:14;;;;;;;8.93;3.88;;;;;;;2.42;100.00;99141.03;5034553;28;20052;-71
2021/12/10 04:43:47;;;;;;;9.70;4.82;;;;;;;2.35;100.00;99133.31;5035469;28;20058;-70
2021/12/10 04:46:16;;;;;;;10.27;4.28;;;;;;;2.40;100.00;99126.19;5035100;28;20223;-71
2021/12/10 04:48:52;;;;;;;10.52;4.35;;;;;;;2.37;100.00;99139.44;5036367;28;20404;-70
2021/12/10 04:51:23;;;;;;;11.60;4.13;;;;;;;2.39;100.00;99132.38;5034639;28;20049;-70
2021/12/10 04:53:53;;;;;;;12.85;4.38;;;;;;;2.38;100.00;99125.34;5034606;28;20053;-70
2021/12/10 04:56:24;;;;;;;13.15;4.43;;;;;;;2.40;100.00;99124.44;5034155;28;20405;-70
2021/12/10 04:58:53;;;;;;;12.00;4.53;;;;;;;2.41;100.00;99112.97;5034369;28;20045;-70
2021/12/10 05:01:23;;;;;;;9.32;3.50;;;;;;;2.43;100.00;99111.19;5035077;28;20087;-73
2021/12/10 05:03:51;;;;;;;9.23;3.67;;;;;;;2.37;100.00;99108.72;5035452;28;20076;-73
2021/12/10 05:06:19;;;;;;;6.63;2.78;;;;;;;2.38;100.00;99110.44;5034317;28;20139;-72
2021/12/10 05:08:48;;;;;;;10.93;5.07;;;;;;;2.41;100.00;99105.09;5034876;28;20049;-74
2021/12/10 05:11:17;;;;;;;9.43;4.05;;;;;;;2.35;100.00;99101.75;5034930;28;20072;-73
2021/12/10 05:13:48;;;;;;;12.43;3.90;;;;;;;2.37;100.00;99100.81;5035610;28;20079;-73
2021/12/10 05:16:24;;;;;;;10.70;4.07;;;;;;;2.38;100.00;99089.38;5034249;28;20055;-73
2021/12/10 05:18:57;;;;;;;9.07;3.90;;;;;;;2.40;100.00;99100.75;5035006;28;20314;-73
2021/12/10 05:21:26;;;;;;;11.52;4.10;;;;;;;2.37;100.00;99095.56;5036875;28;20127;-73
2021/12/10 05:23:54;;;;;;;14.07;4.30;;;;;;;2.37;100.00;99090.28;5033409;28;20052;-74
2021/12/10 05:26:22;;;;;;;12.95;3.80;;;;;;;2.39;100.00;99092.88;5035388;28;20084;-73
2021/12/10 05:28:50;;;;;;;10.82;4.35;;;;;;;2.40;100.00;99092.84;5036615;28;20175;-74
2021/12/10 05:31:19;;;;;;;11.68;3.55;;;;;;;2.45;100.00;99091.84;5034153;28;20142;-75
2021/12/10 05:33:48;;;;;;;9.93;3.35;;;;;;;2.47;100.00;99082.13;5033657;28;20140;-73
2021/12/10 05:36:16;;;;;;;8.32;3.95;;;;;;;2.48;100.00;99089.13;5036022;28;20071;-72
2021/12/10 05:38:44;;;;;;;7.28;3.25;;;;;;;2.44;100.00;99093.63;5035042;28;20497;-73
2021/12/10 05:41:12;;;;;;;7.55;3.40;;;;;;;2.44;100.00;99088.34;5035142;28;20047;-71
2021/12/10 05:43:42;;;;;;;10.90;3.08;;;;;;;2.46;100.00;99088.31;5033987;28;20103;-74
2021/12/10 05:46:12;;;;;;;11.35;3.90;;;;;;;2.41;100.00;99086.66;5034780;28;20041;-71
2021/12/10 05:48:41;;;;;;;7.35;3.47;;;;;;;2.42;100.00;99077.00;5032547;28;20045;-72
2021/12/10 05:51:10;;;;;;;9.05;2.90;;;;;;;2.36;100.00;99085.91;5033472;28;20739;-72
2021/12/10 05:53:39;;;;;;;6.20;2.78;;;;;;;2.40;100.00;99084.06;5032017;28;20056;-72
2021/12/10 05:56:09;;;;;;;6.30;3.10;;;;;;;2.45;100.00;99076.91;5034818;28;20049;-72
2021/12/10 05:58:37;;;;;;;7.72;3.45;;;;;;;2.42;100.00;99083.13;5032705;28;20053;-73
2021/12/10 06:01:09;;;;;;;6.57;3.45;;;;;;;2.39;100.00;99083.19;5033574;28;20045;-73
2021/12/10 06:03:40;;;;;;;8.40;3.10;;;;;;;2.39;100.00;99074.44;5034959;28;20501;-72
2021/12/10 06:06:09;;;;;;;6.70;3.10;;;;;;;2.40;100.00;99079.69;5032949;28;20162;-72
2021/12/10 06:08:38;;;;;;;11.10;4.00;;;;;;;2.41;100.00;99086.66;5034687;28;20132;-73
2021/12/10 06:11:07;;;;;;;9.13;3.30;;;;;;;2.41;100.00;99091.06;5033479;28;20049;-72
2021/12/10 06:13:35;;;;;;;9.25;3.50;;;;;;;2.50;100.00;99092.56;5037144;28;20057;-69
2021/12/10 06:16:04;;;;;;;11.93;3.17;;;;;;;2.51;100.00;99092.53;5034624;28;20250;-74
2021/12/10 06:18:34;;;;;;;10.93;3.17;;;;;;;2.47;100.00;99096.19;5032458;28;20053;-74
2021/12/10 06:21:04;;;;;;;9.45;3.50;;;;;;;2.42;100.00;99087.53;5033713;28;20077;-73
2021/12/10 06:23:34;;;;;;;9.43;2.90;;;;;;;2.46;100.00;99096.22;5033502;28;20556;-73
2021/12/10 06:26:03;;;;;;;7.13;3.03;;;;;;;2.41;100.00;99084.03;5033150;28;20048;-73
2021/12/10 06:28:36;;;;;;;10.57;3.03;;;;;;;2.42;100.00;99087.53;5034992;28;20694;-73
2021/12/10 06:31:06;;;;;;;7.32;2.30;;;;;;;2.45;100.00;99086.56;5033187;28;20041;-74
2021/12/10 06:33:34;;;;;;;5.93;2.28;;;;;;;2.44;100.00;99085.72;5035576;28;20110;-74
2021/12/10 06:36:05;;;;;;;14.20;3.78;;;;;;;2.41;100.00;99091.06;5034430;28;20049;-75
2021/12/10 06:38:37;;;;;;;6.57;2.58;;;;;;;2.38;100.00;99086.75;5034064;28;20048;-74
2021/12/10 06:41:06;;;;;;;8.18;2.90;;;;;;;2.40;100.00;99091.94;5034281;28;20048;-73
2021/12/10 06:43:35;;;;;;;9.98;3.20;;;;;;;2.39;100.00;99090.25;5034316;28;20084;-74
2021/12/10 06:46:05;;;;;;;9.85;3.10;;;;;;;2.43;100.00;99089.25;5035834;28;20048;-74
2021/12/10 06:48:34;;;;;;;8.30;3.42;;;;;;;2.38;100.00;99088.50;5032404;28;20053;-74
2021/12/10 06:51:09;;;;;;;11.98;3.30;;;;;;;2.33;100.00;99087.75;5035001;28;20311;-74
2021/12/10 06:53:41;;;;;;;9.90;3.80;;;;;;;2.29;100.00;99091.41;5031949;28;20061;-73
2021/12/10 06:56:09;;;;;;;11.10;3.10;;;;;;;2.29;100.00;99099.28;5035150;28;20417;-74
2021/12/10 06:58:37;;;;;;;10.60;3.88;;;;;;;2.33;100.00;99104.41;5031145;28;20549;-74
2021/12/10 07:01:11;;;;;;;9.45;3.42;;;;;;;2.34;100.00;99102.66;5032523;28;20048;-74
2021/12/10 07:03:41;;;;;;;5.10;2.88;;;;;;;2.37;100.00;99102.59;5034557;28;20140;-74
2021/12/10 07:06:13;;;;;;;10.18;2.97;;;;;;;2.40;100.00;99107.75;5032439;28;20549;-74
2021/12/10 07:08:44;;;;;;;12.60;2.58;;;;;;;2.33;100.00;99095.66;5031606;28;20048;-74
2021/12/10 07:11:14;;;;;;;5.45;2.47;;;;;;;2.38;100.00;99104.28;5034471;28;20045;-75
2021/12/10 07:13:45;;;;;;;8.40;3.67;;;;;;;2.29;100.00;99102.78;5036803;28;20067;-74
2021/12/10 07:16:14;;;;;;;8.55;3.38;;;;;;;2.30;100.00;99108.91;5036208;28;20050;-74
2021/12/10 07:18:42;;;;;;;10.80;3.63;;;;;;;2.29;100.00;99104.56;5040277;28;20661;-73
2021/12/10 07:21:11;;;;;;;9.07;3.13;;;;;;;2.36;100.00;99109.59;5037283;28;20473;-73
2021/12/10 07:23:40;;;;;;;11.65;4.00;;;;;;;2.28;100.00;99111.56;5037971;28;20045;-70
2021/12/10 07:26:11;;;;;;;12.77;3.92;;;;;;;2.33;100.00;99107.03;5037069;28;20045;-74
2021/12/10 07:28:39;;;;;;;10.13;3.65;;;;;;;2.29;100.00;99115.09;5037594;28;20060;-74
2021/12/10 07:31:09;;;;;;;15.32;3.65;;;;;;;2.28;100.00;99119.47;5037127;28;20056;-74
2021/12/10 07:33:37;;;;;;;8.60;3.05;;;;;;;2.30;100.00;99116.78;5035461;28;20490;-74
2021/12/10 07:36:06;;;;;;;9.60;3.60;;;;;;;2.26;100.00;99125.69;5036479;28;20071;-74
2021/12/10 07:38:35;;;;;;;16.38;4.28;;;;;;;2.24;100.00;99120.44;5035804;28;20049;-74
2021/12/10 07:41:06;;;;;;;13.50;3.75;;;;;;;2.22;100.00;99117.84;5036979;28;20139;-74
2021/12/10 07:43:37;;;;;;;8.43;3.97;;;;;;;2.19;100.00;99120.56;5036570;28;20041;-75
2021/12/10 07:46:05;;;;;;;8.73;4.03;;;;;;;2.13;100.00;99122.47;5036232;28;20055;-74
2021/12/10 07:48:35;;;;;;;8.60;3.83;;;;;;;2.12;100.00;99124.25;5037852;28;20059;-74
2021/12/10 07:51:09;;;;;;;6.80;3.78;;;;;;;2.12;100.00;99126.03;5035059;28;20049;-74
2021/12/10 07:53:39;;;;;;;9.05;3.80;;;;;;;2.13;100.00;99126.00;5036988;28;20140;-74
2021/12/10 07:56:09;;;;;;;8.70;3.90;;;;;;;2.11;100.00;99126.91;5037018;28;20045;-74
2021/12/10 07:58:42;;;;;;;6.30;3.03;;;;;;;2.16;100.00;99131.19;5038510;28;20045;-74
2021/12/10 08:01:13;;;;;;;12.45;4.28;;;;;;;2.12;100.00;99134.78;5036464;28;20041;-72
2021/12/10 08:03:42;;;;;;;10.07;4.50;;;;;;;2.12;100.00;99132.16;5037801;28;20049;-72
2021/12/10 08:06:10;;;;;;;11.70;5.35;;;;;;;2.14;100.00;99130.34;5036069;28;20084;-69
2021/12/10 08:08:38;;;;;;;9.63;4.53;;;;;;;2.11;100.00;99121.66;5037921;28;20131;-69
2021/12/10 08:11:07;;;;;;;13.23;4.50;;;;;;;2.14;100.00;99125.06;5035480;28;20053;-71
2021/12/10 08:13:35;;;;;;;11.05;4.38;;;;;;;2.15;100.00;99126.81;5036870;28;20456;-69
2021/12/10 08:16:05;;;;;;;13.68;4.38;;;;;;;2.15;100.00;99137.34;5036590;28;20584;-69
2021/12/10 08:18:33;;;;;;;10.55;4.38;;;;;;;2.16;100.00;99139.09;5037055;28;20114;-69
2021/12/10 08:21:02;;;;;;;10.85;5.20;;;;;;;2.18;100.00;99139.03;5034563;28;20428;-69
2021/12/10 08:23:30;;;;;;;14.55;4.47;;;;;;;2.17;100.00;99138.16;5037103;28;20045;-72
2021/12/10 08:25:58;;;;;;;10.50;4.43;;;;;;;2.23;100.00;99135.38;5034620;28;20160;-68
2021/12/10 08:28:27;;;;;;;12.13;4.63;;;;;;;2.21;100.00;99147.72;5036994;28;20045;-69
2021/12/10 08:30:56;;;;;;;12.00;4.47;;;;;;;2.21;100.00;99139.84;5035186;28;20408;-72
2021/12/10 08:33:26;;;;;;;13.90;4.28;;;;;;;2.20;100.00;99146.00;5036217;28;20492;-72
2021/12/10 08:35:57;;;;;;;9.32;3.70;;;;;;;2.33;100.00;99143.91;5036078;28;20190;-72
2021/12/10 08:38:26;;;;;;;8.90;4.53;;;;;;;2.33;100.00;99150.94;5034867;28;20052;-72
2021/12/10 08:40:57;;;;;;;9.98;4.82;;;;;;;2.22;100.00;99149.44;5037336;28;20524;-68
2021/12/10 08:43:26;;;;;;;11.25;4.72;;;;;;;2.24;100.00;99158.16;5036421;28;20045;-69
2021/12/10 08:45:54;;;;;;;8.90;4.18;;;;;;;2.31;100.00;99163.28;5033528;28;20152;-69
2021/12/10 08:48:22;;;;;;;8.32;4.30;;;;;;;2.30;100.00;99159.78;5034919;28;20114;-69
2021/12/10 08:50:54;;;;;;;10.85;5.60;;;;;;;2.29;100.00;99167.72;5033498;28;20473;-69
2021/12/10 08:53:22;;;;;;;10.98;5.53;;;;;;;2.33;100.00;99164.09;5033638;28;20342;-69
2021/12/10 08:55:54;;;;;;;10.05;4.63;;;;;;;2.36;100.00;99156.13;5033490;28;20493;-69
2021/12/10 08:58:22;;;;;;;12.70;4.88;;;;;;;2.32;100.00;99162.38;5032282;28;20087;-69
2021/12/10 09:00:56;;;;;;;7.55;3.80;;;;;;;2.39;100.00;99158.69;5034387;28;20136;-68
2021/12/10 09:03:41;;;;;;;10.85;5.25;;;;;;;2.38;100.00;99159.59;5034727;28;20063;-68
2021/12/10 09:06:11;;;;;;;10.40;5.22;;;;;;;2.30;100.00;99165.06;5032897;28;20829;-68
2021/12/10 09:08:39;;;;;;;16.02;5.32;;;;;;;2.26;100.00;99173.06;5037295;28;20140;-69
2021/12/10 09:11:08;;;;;;;9.98;5.53;;;;;;;2.29;100.00;99175.63;5034307;28;20052;-68
2021/12/10 09:13:37;;;;;;;7.05;4.25;;;;;;;2.31;100.00;99177.28;5035092;28;20171;-69
2021/12/10 09:16:09;;;;;;;14.50;5.57;;;;;;;2.29;100.00;99181.75;5035299;28;20053;-69
2021/12/10 09:18:39;;;;;;;12.00;4.88;;;;;;;2.34;100.00;99184.28;5034547;28;20146;-69
2021/12/10 09:21:09;;;;;;;9.20;4.57;;;;;;;2.36;100.00;99192.97;5034600;28;20049;-69
2021/12/10 09:23:39;;;;;;;9.95;4.55;;;;;;;2.22;100.00;99191.56;5034652;28;20445;-68
2021/12/10 09:26:12;;;;;;;11.93;4.43;;;;;;;2.30;100.00;99198.38;5034312;28;20151;-69
2021/12/10 09:28:42;;;;;;;12.45;4.10;;;;;;;2.29;100.00;99209.84;5035034;28;20144;-70
2021/12/10 09:31:11;;;;;;;10.23;4.15;;;;;;;2.34;100.00;99206.19;5033993;28;20072;-69
2021/12/10 09:33:39;;;;;;;9.98;4.20;;;;;;;2.35;100.00;99196.50;5031114;28;20045;-70
2021/12/10 09:36:08;;;;;;;16.23;4.70;;;;;;;2.40;100.00;99208.69;5034400;28;20053;-70
2021/12/10 09:38:38;;;;;;;9.52;3.88;;;;;;;2.39;100.00;99211.34;5032211;28;20092;-69
2021/12/10 09:41:10;;;;;;;12.15;4.10;;;;;;;2.46;100.00;99214.69;5035635;28;20209;-70
2021/12/10 09:43:40;;;;;;;11.45;4.53;;;;;;;2.34;100.00;99215.84;5034711;28;20049;-70
2021/12/10 09:46:10;;;;;;;10.13;4.47;;;;;;;2.36;100.00;99214.03;5032508;28;20048;-70
2021/12/10 09:48:39;;;;;;;9.77;4.80;;;;;;;2.34;100.00;99223.75;5034871;28;20045;-72
2021/12/10 09:51:15;;;;;;;8.95;4.18;;;;;;;2.35;100.00;99225.47;5035352;28;20439;-70
2021/12/10 09:53:50;;;;;;;10.23;4.68;;;;;;;2.36;100.00;99222.78;5033515;28;20045;-70
2021/12/10 09:56:20;;;;;;;9.70;3.97;;;;;;;2.42;100.00;99227.94;5034499;28;20075;-69
2021/12/10 09:58:53;;;;;;;13.30;4.65;;;;;;;2.33;100.00;99222.00;5034598;28;20156;-70
2021/12/10 10:01:25;;;;;;;15.35;4.40;;;;;;;2.37;100.00;99219.28;5034078;28;20076;-69
2021/12/10 10:04:00;;;;;;;13.35;4.85;;;;;;;2.46;100.00;99220.81;5032181;28;20211;-74
2021/12/10 10:06:33;;;;;;;10.95;4.43;;;;;;;2.41;100.00;99222.69;5030989;28;20045;-74
2021/12/10 10:09:12;;;;;;;14.90;6.15;;;;;;;2.41;100.00;99230.59;5034509;28;20056;-74
2021/12/10 10:11:54;;;;;;;8.77;4.57;;;;;;;2.45;100.00;99226.13;5034169;28;20052;-70
2021/12/10 10:14:23;;;;;;;14.57;5.47;;;;;;;2.40;100.00;99224.47;5035456;28;20053;-70
2021/12/10 10:16:52;;;;;;;10.40;4.65;;;;;;;2.40;100.00;99228.84;5031233;28;20187;-75
2021/12/10 10:19:20;;;;;;;10.85;5.65;;;;;;;2.41;100.00;99234.09;5032694;28;20174;-74
2021/12/10 10:21:53;;;;;;;13.30;5.20;;;;;;;2.45;100.00;99234.88;5032320;28;20053;-74
2021/12/10 10:24:24;;;;;;;13.43;5.53;;;;;;;2.37;100.00;99237.72;5033289;28;20037;-74
2021/12/10 10:26:57;;;;;;;10.65;5.00;;;;;;;2.40;100.00;99242.00;5033415;28;20049;-74
2021/12/10 10:29:28;;;;;;;14.40;6.10;;;;;;;2.35;100.00;99244.78;5033044;28;20564;-75
2021/12/10 10:32:08;;;;;;;14.25;6.07;;;;;;;2.41;100.00;99241.13;5032308;28;20051;-72
2021/12/10 10:34:39;;;;;;;14.77;5.15;;;;;;;2.54;100.00;99239.94;5029523;28;20076;-74
2021/12/10 10:37:12;;;;;;;10.63;4.93;;;;;;;2.50;100.00;99237.41;5030316;28;20421;-74
2021/12/10 10:39:43;;;;;;;14.00;5.72;;;;;;;2.50;100.00;99240.88;5031725;28;20980;-70
2021/12/10 10:42:14;;;;;;;11.80;5.10;;;;;;;2.52;100.00;99239.09;5034225;28;20049;-70
2021/12/10 10:44:58;;;;;;;12.17;4.87;;;;;;;2.46;100.00;99236.59;5033475;28;20049;-69
2021/12/10 10:47:27;;;;;;;13.23;5.00;;;;;;;2.45;100.00;99242.75;5035042;28;20173;-74
2021/12/10 10:49:57;;;;;;;11.13;5.15;;;;;;;2.46;100.00;99248.91;5037963;28;20068;-76
2021/12/10 10:52:29;;;;;;;12.82;5.22;;;;;;;2.44;100.00;99251.59;5036124;28;20060;-69
2021/12/10 10:55:02;;;;;;;9.45;5.28;;;;;;;2.47;100.00;99254.16;5035168;28;20049;-69
2021/12/10 10:57:32;;;;;;;11.20;4.85;;;;;;;2.53;100.00;99263.66;5038993;28;20076;-70
2021/12/10 11:00:13;;;;;;;15.02;5.60;;;;;;;2.52;100.00;99256.66;5036196;28;20624;-69
2021/12/10 11:02:50;;;;;;;13.98;5.45;;;;;;;2.53;100.00;99253.13;5036713;28;20047;-70
2021/12/10 11:05:21;;;;;;;10.57;5.53;;;;;;;2.46;100.00;99255.03;5035103;28;20048;-75
2021/12/10 11:07:53;;;;;;;13.65;4.88;;;;;;;2.51;100.00;99254.94;5037368;28;20041;-70
2021/12/10 11:10:29;;;;;;;10.85;5.05;;;;;;;2.52;100.00;99261.91;5036837;28;20060;-75
2021/12/10 11:13:10;;;;;;;10.32;4.95;;;;;;;2.54;100.00;99260.13;5037968;28;20140;-72
2021/12/10 11:15:40;;;;;;;12.68;6.00;;;;;;;2.53;100.00;99259.25;5034470;28;20068;-75
2021/12/10 11:18:16;;;;;;;12.63;5.30;;;;;;;2.58;100.00;99262.63;5038707;28;20048;-70
2021/12/10 11:20:46;;;;;;;14.45;5.65;;;;;;;2.69;100.00;99262.38;5037398;28;20122;-72
2021/12/10 11:23:16;;;;;;;16.15;5.72;;;;;;;2.65;100.00;99265.97;5033072;28;20086;-70
2021/12/10 11:25:49;;;;;;;19.33;6.10;;;;;;;2.65;100.00;99276.53;5035202;28;21847;-74
2021/12/10 11:28:20;;;;;;;13.30;5.25;;;;;;;2.72;100.00;99278.09;5036597;28;20061;-76
2021/12/10 11:30:51;;;;;;;11.13;5.32;;;;;;;2.65;100.00;99281.78;5036149;28;20041;-70
2021/12/10 11:33:22;;;;;;;11.57;5.68;;;;;;;2.77;100.00;99272.72;5033884;28;20184;-71
2021/12/10 11:35:52;;;;;;;15.50;6.10;;;;;;;2.80;100.00;99278.78;5035654;28;20127;-76
2021/12/10 11:38:24;;;;;;;12.02;5.72;;;;;;;2.77;100.00;99278.84;5037243;28;20183;-70
2021/12/10 11:40:56;;;;;;;11.88;6.05;;;;;;;2.79;100.00;99284.97;5037341;28;20121;-71
2021/12/10 11:43:52;;;;;;;12.65;5.57;;;;;;;2.83;100.00;99288.38;5036193;28;20372;-71
2021/12/10 11:46:43;;;;;;;15.82;5.28;;;;;;;2.84;100.00;99279.56;5037266;28;20053;-70
2021/12/10 11:49:18;;;;;;;13.57;5.65;;;;;;;2.76;100.00;99281.53;5035270;28;20127;-70
2021/12/10 11:51:48;;;;;;;15.82;6.45;;;;;;;2.79;100.00;99281.44;5033225;28;20091;-75